sensor_id;sensor_type;location;lat;lon;timestamp;temperature;humidity
66962;HTU21D;53897;51.126;5.868;2023-05-27T00:00:18;24.63;43.33
66962;HTU21D;53897;51.126;5.868;2023-05-27T00:02:44;24.63;43.37
66962;HTU21D;53897;51.126;5.868;2023-05-27T00:05:11;24.62;43.39
66962;HTU21D;53897;51.126;5.868;2023-05-27T00:07:36;24.62;43.41
66962;HTU21D;53897;51.126;5.868;2023-05-27T00:10:02;24.62;43.41
66962;HTU21D;53897;51.126;5.868;2023-05-27T00:12:28;24.61;43.39
66962;HTU21D;53897;51.126;5.868;2023-05-27T00:14:54;24.60;43.38
66962;HTU21D;53897;51.126;5.868;2023-05-27T00:17:20;24.60;43.36
66962;HTU21D;53897;51.126;5.868;2023-05-27T00:19:46;24.58;43.37
66962;HTU21D;53897;51.126;5.868;2023-05-27T00:22:13;24.59;43.35
66962;HTU21D;53897;51.126;5.868;2023-05-27T00:24:39;24.57;43.35
66962;HTU21D;53897;51.126;5.868;2023-05-27T00:27:07;24.57;43.36
66962;HTU21D;53897;51.126;5.868;2023-05-27T00:29:34;24.57;43.36
66962;HTU21D;53897;51.126;5.868;2023-05-27T00:32:00;24.56;43.38
66962;HTU21D;53897;51.126;5.868;2023-05-27T00:34:32;24.56;43.37
66962;HTU21D;53897;51.126;5.868;2023-05-27T00:37:00;24.54;43.37
66962;HTU21D;53897;51.126;5.868;2023-05-27T00:39:26;24.55;43.37
66962;HTU21D;53897;51.126;5.868;2023-05-27T00:41:53;24.53;43.37
66962;HTU21D;53897;51.126;5.868;2023-05-27T00:44:19;24.51;43.37
66962;HTU21D;53897;51.126;5.868;2023-05-27T00:46:47;24.51;43.36
66962;HTU21D;53897;51.126;5.868;2023-05-27T00:49:13;24.50;43.31
66962;HTU21D;53897;51.126;5.868;2023-05-27T00:51:39;24.50;43.23
66962;HTU21D;53897;51.126;5.868;2023-05-27T00:54:07;24.49;43.23
66962;HTU21D;53897;51.126;5.868;2023-05-27T00:56:33;24.49;43.26
66962;HTU21D;53897;51.126;5.868;2023-05-27T00:59:00;24.48;43.34
66962;HTU21D;53897;51.126;5.868;2023-05-27T01:01:26;24.46;43.37
66962;HTU21D;53897;51.126;5.868;2023-05-27T01:03:53;24.44;43.40
66962;HTU21D;53897;51.126;5.868;2023-05-27T01:09:11;24.45;43.42
66962;HTU21D;53897;51.126;5.868;2023-05-27T01:11:44;24.43;43.43
66962;HTU21D;53897;51.126;5.868;2023-05-27T01:14:14;24.43;43.43
66962;HTU21D;53897;51.126;5.868;2023-05-27T01:16:44;24.43;43.42
66962;HTU21D;53897;51.126;5.868;2023-05-27T01:19:20;24.42;43.37
66962;HTU21D;53897;51.126;5.868;2023-05-27T01:21:52;24.42;43.35
66962;HTU21D;53897;51.126;5.868;2023-05-27T01:24:19;24.42;43.35
66962;HTU21D;53897;51.126;5.868;2023-05-27T01:26:46;24.40;43.37
66962;HTU21D;53897;51.126;5.868;2023-05-27T01:29:12;24.39;43.38
66962;HTU21D;53897;51.126;5.868;2023-05-27T01:32:08;24.41;43.34
66962;HTU21D;53897;51.126;5.868;2023-05-27T01:34:59;24.39;43.35
66962;HTU21D;53897;51.126;5.868;2023-05-27T01:37:33;24.38;43.38
66962;HTU21D;53897;51.126;5.868;2023-05-27T01:40:01;24.36;43.36
66962;HTU21D;53897;51.126;5.868;2023-05-27T01:42:36;24.36;43.34
66962;HTU21D;53897;51.126;5.868;2023-05-27T01:45:05;24.35;43.35
66962;HTU21D;53897;51.126;5.868;2023-05-27T01:47:32;24.34;43.35
66962;HTU21D;53897;51.126;5.868;2023-05-27T01:49:57;24.34;43.37
66962;HTU21D;53897;51.126;5.868;2023-05-27T01:52:24;24.33;43.37
66962;HTU21D;53897;51.126;5.868;2023-05-27T01:54:50;24.33;43.35
66962;HTU21D;53897;51.126;5.868;2023-05-27T01:57:17;24.33;43.34
66962;HTU21D;53897;51.126;5.868;2023-05-27T01:59:43;24.32;43.33
66962;HTU21D;53897;51.126;5.868;2023-05-27T02:02:09;24.31;43.34
66962;HTU21D;53897;51.126;5.868;2023-05-27T02:04:35;24.29;43.34
66962;HTU21D;53897;51.126;5.868;2023-05-27T02:07:01;24.30;43.36
66962;HTU21D;53897;51.126;5.868;2023-05-27T02:09:26;24.29;43.35
66962;HTU21D;53897;51.126;5.868;2023-05-27T02:11:53;24.29;43.22
66962;HTU21D;53897;51.126;5.868;2023-05-27T02:14:19;24.27;43.20
66962;HTU21D;53897;51.126;5.868;2023-05-27T02:16:44;24.28;43.27
66962;HTU21D;53897;51.126;5.868;2023-05-27T02:19:10;24.27;43.33
66962;HTU21D;53897;51.126;5.868;2023-05-27T02:21:36;24.26;43.45
66962;HTU21D;53897;51.126;5.868;2023-05-27T02:24:02;24.26;43.55
66962;HTU21D;53897;51.126;5.868;2023-05-27T02:26:28;24.25;43.45
66962;HTU21D;53897;51.126;5.868;2023-05-27T02:28:54;24.25;43.36
66962;HTU21D;53897;51.126;5.868;2023-05-27T02:31:21;24.23;43.36
66962;HTU21D;53897;51.126;5.868;2023-05-27T02:33:46;24.24;43.35
66962;HTU21D;53897;51.126;5.868;2023-05-27T02:36:13;24.23;43.36
66962;HTU21D;53897;51.126;5.868;2023-05-27T02:38:39;24.21;43.35
66962;HTU21D;53897;51.126;5.868;2023-05-27T02:41:05;24.20;43.34
66962;HTU21D;53897;51.126;5.868;2023-05-27T02:43:30;24.21;43.33
66962;HTU21D;53897;51.126;5.868;2023-05-27T02:45:56;24.20;43.32
66962;HTU21D;53897;51.126;5.868;2023-05-27T02:48:22;24.20;43.32
66962;HTU21D;53897;51.126;5.868;2023-05-27T02:50:48;24.19;43.29
66962;HTU21D;53897;51.126;5.868;2023-05-27T02:53:14;24.19;43.33
66962;HTU21D;53897;51.126;5.868;2023-05-27T02:55:40;24.18;43.32
66962;HTU21D;53897;51.126;5.868;2023-05-27T02:58:06;24.18;43.29
66962;HTU21D;53897;51.126;5.868;2023-05-27T03:00:33;24.15;43.29
66962;HTU21D;53897;51.126;5.868;2023-05-27T03:02:59;24.16;43.29
66962;HTU21D;53897;51.126;5.868;2023-05-27T03:05:25;24.15;43.26
66962;HTU21D;53897;51.126;5.868;2023-05-27T03:07:51;24.15;43.27
66962;HTU21D;53897;51.126;5.868;2023-05-27T03:10:17;24.15;43.27
66962;HTU21D;53897;51.126;5.868;2023-05-27T03:12:43;24.14;43.29
66962;HTU21D;53897;51.126;5.868;2023-05-27T03:15:08;24.15;43.28
66962;HTU21D;53897;51.126;5.868;2023-05-27T03:17:38;24.12;43.27
66962;HTU21D;53897;51.126;5.868;2023-05-27T03:20:04;24.13;43.30
66962;HTU21D;53897;51.126;5.868;2023-05-27T03:22:34;24.11;43.29
66962;HTU21D;53897;51.126;5.868;2023-05-27T03:25:00;24.11;43.29
66962;HTU21D;53897;51.126;5.868;2023-05-27T03:27:25;24.10;43.32
66962;HTU21D;53897;51.126;5.868;2023-05-27T03:29:52;24.09;43.29
66962;HTU21D;53897;51.126;5.868;2023-05-27T03:32:18;24.11;43.29
66962;HTU21D;53897;51.126;5.868;2023-05-27T03:34:46;24.10;43.31
66962;HTU21D;53897;51.126;5.868;2023-05-27T03:37:12;24.09;43.34
66962;HTU21D;53897;51.126;5.868;2023-05-27T03:40:09;24.08;43.35
66962;HTU21D;53897;51.126;5.868;2023-05-27T03:42:35;24.08;43.32
66962;HTU21D;53897;51.126;5.868;2023-05-27T03:45:01;24.06;43.22
66962;HTU21D;53897;51.126;5.868;2023-05-27T03:47:28;24.05;43.23
66962;HTU21D;53897;51.126;5.868;2023-05-27T03:49:53;24.04;43.23
66962;HTU21D;53897;51.126;5.868;2023-05-27T03:52:19;24.03;43.27
66962;HTU21D;53897;51.126;5.868;2023-05-27T03:54:45;23.98;43.43
66962;HTU21D;53897;51.126;5.868;2023-05-27T03:57:12;23.94;43.58
66962;HTU21D;53897;51.126;5.868;2023-05-27T03:59:38;23.89;43.74
66962;HTU21D;53897;51.126;5.868;2023-05-27T04:02:04;23.84;43.85
66962;HTU21D;53897;51.126;5.868;2023-05-27T04:04:30;23.82;43.96
66962;HTU21D;53897;51.126;5.868;2023-05-27T04:06:55;23.79;44.04
66962;HTU21D;53897;51.126;5.868;2023-05-27T04:09:22;23.74;44.11
66962;HTU21D;53897;51.126;5.868;2023-05-27T04:11:48;23.74;44.19
66962;HTU21D;53897;51.126;5.868;2023-05-27T04:14:13;23.73;44.22
66962;HTU21D;53897;51.126;5.868;2023-05-27T04:16:40;23.70;44.27
66962;HTU21D;53897;51.126;5.868;2023-05-27T04:19:07;23.68;44.32
66962;HTU21D;53897;51.126;5.868;2023-05-27T04:21:33;23.66;44.35
66962;HTU21D;53897;51.126;5.868;2023-05-27T04:24:01;23.68;44.27
66962;HTU21D;53897;51.126;5.868;2023-05-27T04:26:28;23.67;44.28
66962;HTU21D;53897;51.126;5.868;2023-05-27T04:28:54;23.66;44.31
66962;HTU21D;53897;51.126;5.868;2023-05-27T04:31:21;23.66;44.32
66962;HTU21D;53897;51.126;5.868;2023-05-27T04:33:56;23.66;44.34
66962;HTU21D;53897;51.126;5.868;2023-05-27T04:36:22;23.65;44.36
66962;HTU21D;53897;51.126;5.868;2023-05-27T04:39:06;23.65;44.29
66962;HTU21D;53897;51.126;5.868;2023-05-27T04:41:34;23.65;44.31
66962;HTU21D;53897;51.126;5.868;2023-05-27T04:44:07;23.66;44.30
66962;HTU21D;53897;51.126;5.868;2023-05-27T04:46:38;23.65;44.31
66962;HTU21D;53897;51.126;5.868;2023-05-27T04:49:09;23.65;44.32
66962;HTU21D;53897;51.126;5.868;2023-05-27T04:51:36;23.62;44.36
66962;HTU21D;53897;51.126;5.868;2023-05-27T04:54:02;23.62;44.36
66962;HTU21D;53897;51.126;5.868;2023-05-27T04:56:28;23.61;44.39
66962;HTU21D;53897;51.126;5.868;2023-05-27T04:58:54;23.59;44.39
66962;HTU21D;53897;51.126;5.868;2023-05-27T05:01:28;23.58;44.42
66962;HTU21D;53897;51.126;5.868;2023-05-27T05:04:03;23.58;44.43
66962;HTU21D;53897;51.126;5.868;2023-05-27T05:07:05;23.57;44.41
66962;HTU21D;53897;51.126;5.868;2023-05-27T05:09:33;23.58;44.38
66962;HTU21D;53897;51.126;5.868;2023-05-27T05:12:06;23.60;44.35
66962;HTU21D;53897;51.126;5.868;2023-05-27T05:14:37;23.61;44.31
66962;HTU21D;53897;51.126;5.868;2023-05-27T05:17:04;23.60;44.26
66962;HTU21D;53897;51.126;5.868;2023-05-27T05:19:30;23.60;44.21
66962;HTU21D;53897;51.126;5.868;2023-05-27T05:21:57;23.60;44.22
66962;HTU21D;53897;51.126;5.868;2023-05-27T05:24:22;23.60;44.24
66962;HTU21D;53897;51.126;5.868;2023-05-27T05:26:49;23.60;44.22
66962;HTU21D;53897;51.126;5.868;2023-05-27T05:29:15;23.60;44.22
66962;HTU21D;53897;51.126;5.868;2023-05-27T05:31:41;23.60;44.20
66962;HTU21D;53897;51.126;5.868;2023-05-27T05:34:08;23.62;44.16
66962;HTU21D;53897;51.126;5.868;2023-05-27T05:36:36;23.64;44.02
66962;HTU21D;53897;51.126;5.868;2023-05-27T05:39:05;23.67;43.99
66962;HTU21D;53897;51.126;5.868;2023-05-27T05:41:32;23.68;43.94
66962;HTU21D;53897;51.126;5.868;2023-05-27T05:43:58;23.70;43.87
66962;HTU21D;53897;51.126;5.868;2023-05-27T05:46:24;23.71;43.84
66962;HTU21D;53897;51.126;5.868;2023-05-27T05:48:52;23.73;43.80
66962;HTU21D;53897;51.126;5.868;2023-05-27T05:51:31;23.73;43.77
66962;HTU21D;53897;51.126;5.868;2023-05-27T05:53:58;23.75;43.77
66962;HTU21D;53897;51.126;5.868;2023-05-27T05:56:25;23.76;43.76
66962;HTU21D;53897;51.126;5.868;2023-05-27T05:58:54;23.77;43.72
66962;HTU21D;53897;51.126;5.868;2023-05-27T06:01:21;23.77;43.68
66962;HTU21D;53897;51.126;5.868;2023-05-27T06:03:48;23.77;43.68
66962;HTU21D;53897;51.126;5.868;2023-05-27T06:06:26;23.79;43.64
66962;HTU21D;53897;51.126;5.868;2023-05-27T06:09:15;23.79;43.59
66962;HTU21D;53897;51.126;5.868;2023-05-27T06:11:40;23.80;43.59
66962;HTU21D;53897;51.126;5.868;2023-05-27T06:14:06;23.80;43.56
66962;HTU21D;53897;51.126;5.868;2023-05-27T06:16:33;23.80;43.54
66962;HTU21D;53897;51.126;5.868;2023-05-27T06:19:02;23.80;43.53
66962;HTU21D;53897;51.126;5.868;2023-05-27T06:21:28;23.80;43.54
66962;HTU21D;53897;51.126;5.868;2023-05-27T06:24:14;23.80;43.56
66962;HTU21D;53897;51.126;5.868;2023-05-27T06:26:43;23.79;43.56
66962;HTU21D;53897;51.126;5.868;2023-05-27T06:29:09;23.82;43.56
66962;HTU21D;53897;51.126;5.868;2023-05-27T06:31:35;23.80;43.54
66962;HTU21D;53897;51.126;5.868;2023-05-27T06:34:00;23.80;43.52
66962;HTU21D;53897;51.126;5.868;2023-05-27T06:36:26;23.82;43.52
66962;HTU21D;53897;51.126;5.868;2023-05-27T06:38:53;23.81;43.51
66962;HTU21D;53897;51.126;5.868;2023-05-27T06:41:19;23.82;43.51
66962;HTU21D;53897;51.126;5.868;2023-05-27T06:44:01;23.80;43.50
66962;HTU21D;53897;51.126;5.868;2023-05-27T06:46:39;23.80;43.55
66962;HTU21D;53897;51.126;5.868;2023-05-27T06:49:12;23.80;43.58
66962;HTU21D;53897;51.126;5.868;2023-05-27T06:51:38;23.79;43.57
66962;HTU21D;53897;51.126;5.868;2023-05-27T06:54:04;23.81;43.57
66962;HTU21D;53897;51.126;5.868;2023-05-27T06:56:38;23.81;43.58
66962;HTU21D;53897;51.126;5.868;2023-05-27T06:59:07;23.81;43.58
66962;HTU21D;53897;51.126;5.868;2023-05-27T07:01:33;23.80;43.56
66962;HTU21D;53897;51.126;5.868;2023-05-27T07:04:01;23.81;43.59
66962;HTU21D;53897;51.126;5.868;2023-05-27T07:06:59;23.81;43.59
66962;HTU21D;53897;51.126;5.868;2023-05-27T07:09:25;23.83;43.59
66962;HTU21D;53897;51.126;5.868;2023-05-27T07:11:51;23.82;43.64
66962;HTU21D;53897;51.126;5.868;2023-05-27T07:14:35;23.81;43.56
66962;HTU21D;53897;51.126;5.868;2023-05-27T07:17:02;23.80;43.63
66962;HTU21D;53897;51.126;5.868;2023-05-27T07:19:27;23.80;43.66
66962;HTU21D;53897;51.126;5.868;2023-05-27T07:21:58;23.81;43.67
66962;HTU21D;53897;51.126;5.868;2023-05-27T07:24:25;23.81;43.64
66962;HTU21D;53897;51.126;5.868;2023-05-27T07:26:53;23.82;43.70
66962;HTU21D;53897;51.126;5.868;2023-05-27T07:29:20;23.82;43.73
66962;HTU21D;53897;51.126;5.868;2023-05-27T07:31:52;23.83;43.63
66962;HTU21D;53897;51.126;5.868;2023-05-27T07:34:22;23.82;43.60
66962;HTU21D;53897;51.126;5.868;2023-05-27T07:36:48;23.83;43.67
66962;HTU21D;53897;51.126;5.868;2023-05-27T07:39:14;23.82;43.66
66962;HTU21D;53897;51.126;5.868;2023-05-27T07:41:40;23.84;43.64
66962;HTU21D;53897;51.126;5.868;2023-05-27T07:44:06;23.85;43.68
66962;HTU21D;53897;51.126;5.868;2023-05-27T07:46:32;23.85;43.68
66962;HTU21D;53897;51.126;5.868;2023-05-27T07:48:58;23.85;43.67
66962;HTU21D;53897;51.126;5.868;2023-05-27T07:51:25;23.85;43.76
66962;HTU21D;53897;51.126;5.868;2023-05-27T07:53:51;23.86;43.72
66962;HTU21D;53897;51.126;5.868;2023-05-27T07:56:17;23.87;43.68
66962;HTU21D;53897;51.126;5.868;2023-05-27T07:58:44;23.87;43.67
66962;HTU21D;53897;51.126;5.868;2023-05-27T08:01:11;23.86;43.69
66962;HTU21D;53897;51.126;5.868;2023-05-27T08:03:40;23.87;43.71
66962;HTU21D;53897;51.126;5.868;2023-05-27T08:06:16;23.88;43.80
66962;HTU21D;53897;51.126;5.868;2023-05-27T08:08:45;23.88;43.81
66962;HTU21D;53897;51.126;5.868;2023-05-27T08:11:13;23.89;43.80
66962;HTU21D;53897;51.126;5.868;2023-05-27T08:14:02;23.91;43.82
66962;HTU21D;53897;51.126;5.868;2023-05-27T08:16:58;23.91;43.95
66962;HTU21D;53897;51.126;5.868;2023-05-27T08:19:51;23.91;43.87
66962;HTU21D;53897;51.126;5.868;2023-05-27T08:22:36;23.94;43.90
66962;HTU21D;53897;51.126;5.868;2023-05-27T08:25:30;23.94;44.04
66962;HTU21D;53897;51.126;5.868;2023-05-27T08:27:56;23.96;44.06
66962;HTU21D;53897;51.126;5.868;2023-05-27T08:30:50;23.97;44.04
66962;HTU21D;53897;51.126;5.868;2023-05-27T08:33:20;23.98;44.01
66962;HTU21D;53897;51.126;5.868;2023-05-27T08:35:47;23.99;43.97
66962;HTU21D;53897;51.126;5.868;2023-05-27T08:38:14;24.01;43.93
66962;HTU21D;53897;51.126;5.868;2023-05-27T08:40:41;24.01;43.90
66962;HTU21D;53897;51.126;5.868;2023-05-27T08:43:07;24.02;43.97
66962;HTU21D;53897;51.126;5.868;2023-05-27T08:45:38;24.04;44.06
66962;HTU21D;53897;51.126;5.868;2023-05-27T08:48:08;24.05;44.11
66962;HTU21D;53897;51.126;5.868;2023-05-27T08:50:37;24.08;44.15
66962;HTU21D;53897;51.126;5.868;2023-05-27T08:53:03;24.09;44.19
66962;HTU21D;53897;51.126;5.868;2023-05-27T08:55:30;24.10;44.06
66962;HTU21D;53897;51.126;5.868;2023-05-27T08:57:58;24.11;43.95
66962;HTU21D;53897;51.126;5.868;2023-05-27T09:00:28;24.13;43.90
66962;HTU21D;53897;51.126;5.868;2023-05-27T09:02:59;24.15;43.73
66962;HTU21D;53897;51.126;5.868;2023-05-27T09:05:30;24.16;43.57
66962;HTU21D;53897;51.126;5.868;2023-05-27T09:07:56;24.16;43.47
66962;HTU21D;53897;51.126;5.868;2023-05-27T09:10:22;24.17;43.37
66962;HTU21D;53897;51.126;5.868;2023-05-27T09:12:50;24.17;43.35
66962;HTU21D;53897;51.126;5.868;2023-05-27T09:15:16;24.18;43.36
66962;HTU21D;53897;51.126;5.868;2023-05-27T09:17:44;24.19;43.39
66962;HTU21D;53897;51.126;5.868;2023-05-27T09:20:11;24.19;43.44
66962;HTU21D;53897;51.126;5.868;2023-05-27T09:22:39;24.20;43.58
66962;HTU21D;53897;51.126;5.868;2023-05-27T09:25:05;24.23;43.61
66962;HTU21D;53897;51.126;5.868;2023-05-27T09:27:32;24.25;43.68
66962;HTU21D;53897;51.126;5.868;2023-05-27T09:30:07;24.26;43.64
66962;HTU21D;53897;51.126;5.868;2023-05-27T09:32:33;24.27;43.51
66962;HTU21D;53897;51.126;5.868;2023-05-27T09:35:00;24.28;43.54
66962;HTU21D;53897;51.126;5.868;2023-05-27T09:37:29;24.28;43.61
66962;HTU21D;53897;51.126;5.868;2023-05-27T09:40:11;24.31;43.65
66962;HTU21D;53897;51.126;5.868;2023-05-27T09:42:46;24.31;43.69
66962;HTU21D;53897;51.126;5.868;2023-05-27T09:45:20;24.32;43.75
66962;HTU21D;53897;51.126;5.868;2023-05-27T09:47:51;24.33;43.74
66962;HTU21D;53897;51.126;5.868;2023-05-27T09:50:18;24.38;43.85
66962;HTU21D;53897;51.126;5.868;2023-05-27T09:52:47;24.38;43.80
66962;HTU21D;53897;51.126;5.868;2023-05-27T09:55:14;24.40;43.69
66962;HTU21D;53897;51.126;5.868;2023-05-27T09:57:41;24.39;43.61
66962;HTU21D;53897;51.126;5.868;2023-05-27T10:00:08;24.40;43.61
66962;HTU21D;53897;51.126;5.868;2023-05-27T10:02:42;24.42;43.65
66962;HTU21D;53897;51.126;5.868;2023-05-27T10:05:10;24.42;43.70
66962;HTU21D;53897;51.126;5.868;2023-05-27T10:07:38;24.43;43.67
66962;HTU21D;53897;51.126;5.868;2023-05-27T10:10:06;24.45;43.72
66962;HTU21D;53897;51.126;5.868;2023-05-27T10:12:33;24.46;43.74
66962;HTU21D;53897;51.126;5.868;2023-05-27T10:14:59;24.47;43.75
66962;HTU21D;53897;51.126;5.868;2023-05-27T10:17:25;24.47;43.77
66962;HTU21D;53897;51.126;5.868;2023-05-27T10:19:56;24.48;43.82
66962;HTU21D;53897;51.126;5.868;2023-05-27T10:22:22;24.50;43.84
66962;HTU21D;53897;51.126;5.868;2023-05-27T10:24:48;24.51;43.86
66962;HTU21D;53897;51.126;5.868;2023-05-27T10:27:15;24.53;43.85
66962;HTU21D;53897;51.126;5.868;2023-05-27T10:29:41;24.54;43.89
66962;HTU21D;53897;51.126;5.868;2023-05-27T10:32:07;24.55;43.92
66962;HTU21D;53897;51.126;5.868;2023-05-27T10:34:44;24.55;43.97
66962;HTU21D;53897;51.126;5.868;2023-05-27T10:37:19;24.56;44.00
66962;HTU21D;53897;51.126;5.868;2023-05-27T10:39:55;24.60;44.03
66962;HTU21D;53897;51.126;5.868;2023-05-27T10:42:22;24.60;44.03
66962;HTU21D;53897;51.126;5.868;2023-05-27T10:44:49;24.62;44.05
66962;HTU21D;53897;51.126;5.868;2023-05-27T10:47:30;24.63;44.10
66962;HTU21D;53897;51.126;5.868;2023-05-27T10:49:57;24.63;44.10
66962;HTU21D;53897;51.126;5.868;2023-05-27T10:52:24;24.65;44.06
66962;HTU21D;53897;51.126;5.868;2023-05-27T10:54:52;24.66;44.06
66962;HTU21D;53897;51.126;5.868;2023-05-27T10:57:19;24.68;44.14
66962;HTU21D;53897;51.126;5.868;2023-05-27T10:59:49;24.69;44.17
66962;HTU21D;53897;51.126;5.868;2023-05-27T11:02:20;24.71;44.17
66962;HTU21D;53897;51.126;5.868;2023-05-27T11:04:49;24.72;44.19
66962;HTU21D;53897;51.126;5.868;2023-05-27T11:07:19;24.73;44.19
66962;HTU21D;53897;51.126;5.868;2023-05-27T11:09:46;24.74;44.18
66962;HTU21D;53897;51.126;5.868;2023-05-27T11:12:17;24.74;44.15
66962;HTU21D;53897;51.126;5.868;2023-05-27T11:17:13;24.75;43.81
66962;HTU21D;53897;51.126;5.868;2023-05-27T11:19:42;24.76;43.76
66962;HTU21D;53897;51.126;5.868;2023-05-27T11:22:10;24.78;43.75
66962;HTU21D;53897;51.126;5.868;2023-05-27T11:24:37;24.79;43.77
66962;HTU21D;53897;51.126;5.868;2023-05-27T11:27:13;24.80;43.80
66962;HTU21D;53897;51.126;5.868;2023-05-27T11:29:40;24.82;43.80
66962;HTU21D;53897;51.126;5.868;2023-05-27T11:32:16;24.83;43.80
66962;HTU21D;53897;51.126;5.868;2023-05-27T11:34:44;24.85;43.86
66962;HTU21D;53897;51.126;5.868;2023-05-27T11:37:11;24.85;43.94
66962;HTU21D;53897;51.126;5.868;2023-05-27T11:39:49;24.86;43.97
66962;HTU21D;53897;51.126;5.868;2023-05-27T11:42:15;24.86;43.97
66962;HTU21D;53897;51.126;5.868;2023-05-27T11:44:51;24.89;43.91
66962;HTU21D;53897;51.126;5.868;2023-05-27T11:47:17;24.89;43.93
66962;HTU21D;53897;51.126;5.868;2023-05-27T11:49:44;24.90;43.96
66962;HTU21D;53897;51.126;5.868;2023-05-27T11:52:11;24.90;44.01
66962;HTU21D;53897;51.126;5.868;2023-05-27T11:54:38;24.92;44.03
66962;HTU21D;53897;51.126;5.868;2023-05-27T11:57:04;24.94;44.03
66962;HTU21D;53897;51.126;5.868;2023-05-27T11:59:34;24.93;44.03
66962;HTU21D;53897;51.126;5.868;2023-05-27T12:02:03;24.94;44.06
66962;HTU21D;53897;51.126;5.868;2023-05-27T12:04:30;24.94;44.06
66962;HTU21D;53897;51.126;5.868;2023-05-27T12:06:56;24.97;44.09
66962;HTU21D;53897;51.126;5.868;2023-05-27T12:09:23;24.97;44.09
66962;HTU21D;53897;51.126;5.868;2023-05-27T12:11:49;24.98;44.10
66962;HTU21D;53897;51.126;5.868;2023-05-27T12:14:15;24.99;44.11
66962;HTU21D;53897;51.126;5.868;2023-05-27T12:16:41;24.99;44.13
66962;HTU21D;53897;51.126;5.868;2023-05-27T12:19:06;25.02;44.15
66962;HTU21D;53897;51.126;5.868;2023-05-27T12:21:32;25.02;44.17
66962;HTU21D;53897;51.126;5.868;2023-05-27T12:23:59;25.03;44.19
66962;HTU21D;53897;51.126;5.868;2023-05-27T12:26:24;25.02;44.20
66962;HTU21D;53897;51.126;5.868;2023-05-27T12:28:51;25.05;44.21
66962;HTU21D;53897;51.126;5.868;2023-05-27T12:31:17;25.07;44.22
66962;HTU21D;53897;51.126;5.868;2023-05-27T12:33:43;25.06;44.25
66962;HTU21D;53897;51.126;5.868;2023-05-27T12:36:09;25.06;44.24
66962;HTU21D;53897;51.126;5.868;2023-05-27T12:38:36;25.09;44.27
66962;HTU21D;53897;51.126;5.868;2023-05-27T12:41:02;25.10;44.28
66962;HTU21D;53897;51.126;5.868;2023-05-27T12:43:28;25.12;44.30
66962;HTU21D;53897;51.126;5.868;2023-05-27T12:45:54;25.10;44.30
66962;HTU21D;53897;51.126;5.868;2023-05-27T12:48:20;25.13;44.31
66962;HTU21D;53897;51.126;5.868;2023-05-27T12:50:46;25.13;44.32
66962;HTU21D;53897;51.126;5.868;2023-05-27T12:53:12;25.14;44.32
66962;HTU21D;53897;51.126;5.868;2023-05-27T12:55:38;25.17;44.35
66962;HTU21D;53897;51.126;5.868;2023-05-27T12:58:04;25.17;44.39
66962;HTU21D;53897;51.126;5.868;2023-05-27T13:00:30;25.17;44.47
66962;HTU21D;53897;51.126;5.868;2023-05-27T13:02:57;25.17;44.51
66962;HTU21D;53897;51.126;5.868;2023-05-27T13:05:22;25.18;44.53
66962;HTU21D;53897;51.126;5.868;2023-05-27T13:07:59;25.19;44.56
66962;HTU21D;53897;51.126;5.868;2023-05-27T13:10:26;25.21;44.57
66962;HTU21D;53897;51.126;5.868;2023-05-27T13:12:52;25.23;44.59
66962;HTU21D;53897;51.126;5.868;2023-05-27T13:15:19;25.23;44.59
66962;HTU21D;53897;51.126;5.868;2023-05-27T13:18:05;25.25;44.60
66962;HTU21D;53897;51.126;5.868;2023-05-27T13:20:32;25.27;44.60
66962;HTU21D;53897;51.126;5.868;2023-05-27T13:22:58;25.28;44.65
66962;HTU21D;53897;51.126;5.868;2023-05-27T13:25:28;25.28;44.70
66962;HTU21D;53897;51.126;5.868;2023-05-27T13:27:55;25.29;44.74
66962;HTU21D;53897;51.126;5.868;2023-05-27T13:30:22;25.29;44.74
66962;HTU21D;53897;51.126;5.868;2023-05-27T13:32:48;25.30;44.72
66962;HTU21D;53897;51.126;5.868;2023-05-27T13:35:17;25.30;44.75
66962;HTU21D;53897;51.126;5.868;2023-05-27T13:37:43;25.32;44.76
66962;HTU21D;53897;51.126;5.868;2023-05-27T13:40:09;25.33;44.76
66962;HTU21D;53897;51.126;5.868;2023-05-27T13:42:36;25.34;44.66
66962;HTU21D;53897;51.126;5.868;2023-05-27T13:45:02;25.35;44.67
66962;HTU21D;53897;51.126;5.868;2023-05-27T13:47:29;25.35;44.71
66962;HTU21D;53897;51.126;5.868;2023-05-27T13:49:55;25.36;44.75
66962;HTU21D;53897;51.126;5.868;2023-05-27T13:52:21;25.36;44.75
66962;HTU21D;53897;51.126;5.868;2023-05-27T13:54:47;25.35;44.81
66962;HTU21D;53897;51.126;5.868;2023-05-27T13:57:12;25.36;44.83
66962;HTU21D;53897;51.126;5.868;2023-05-27T13:59:38;25.37;44.86
66962;HTU21D;53897;51.126;5.868;2023-05-27T14:02:04;25.37;44.86
66962;HTU21D;53897;51.126;5.868;2023-05-27T14:04:32;25.36;44.87
66962;HTU21D;53897;51.126;5.868;2023-05-27T14:06:58;25.38;44.90
66962;HTU21D;53897;51.126;5.868;2023-05-27T14:09:24;25.39;44.91
66962;HTU21D;53897;51.126;5.868;2023-05-27T14:11:49;25.40;44.90
66962;HTU21D;53897;51.126;5.868;2023-05-27T14:14:15;25.40;44.92
66962;HTU21D;53897;51.126;5.868;2023-05-27T14:16:41;25.43;44.92
66962;HTU21D;53897;51.126;5.868;2023-05-27T14:19:06;25.42;44.90
66962;HTU21D;53897;51.126;5.868;2023-05-27T14:21:32;25.42;44.87
66962;HTU21D;53897;51.126;5.868;2023-05-27T14:23:58;25.44;44.87
66962;HTU21D;53897;51.126;5.868;2023-05-27T14:26:25;25.44;44.86
66962;HTU21D;53897;51.126;5.868;2023-05-27T14:28:51;25.44;44.87
66962;HTU21D;53897;51.126;5.868;2023-05-27T14:31:17;25.45;44.90
66962;HTU21D;53897;51.126;5.868;2023-05-27T14:33:43;25.46;44.90
66962;HTU21D;53897;51.126;5.868;2023-05-27T14:36:10;25.45;44.69
66962;HTU21D;53897;51.126;5.868;2023-05-27T14:38:36;25.47;44.63
66962;HTU21D;53897;51.126;5.868;2023-05-27T14:41:01;25.45;44.53
66962;HTU21D;53897;51.126;5.868;2023-05-27T14:43:27;25.46;44.51
66962;HTU21D;53897;51.126;5.868;2023-05-27T14:45:53;25.46;44.43
66962;HTU21D;53897;51.126;5.868;2023-05-27T14:48:19;25.45;44.42
66962;HTU21D;53897;51.126;5.868;2023-05-27T14:50:44;25.46;44.44
66962;HTU21D;53897;51.126;5.868;2023-05-27T14:53:10;25.44;44.43
66962;HTU21D;53897;51.126;5.868;2023-05-27T14:55:36;25.46;44.48
66962;HTU21D;53897;51.126;5.868;2023-05-27T14:58:02;25.46;44.53
66962;HTU21D;53897;51.126;5.868;2023-05-27T15:00:31;25.45;44.53
66962;HTU21D;53897;51.126;5.868;2023-05-27T15:02:57;25.45;44.52
66962;HTU21D;53897;51.126;5.868;2023-05-27T15:05:22;25.46;44.58
66962;HTU21D;53897;51.126;5.868;2023-05-27T15:07:48;25.48;44.65
66962;HTU21D;53897;51.126;5.868;2023-05-27T15:10:14;25.47;44.58
66962;HTU21D;53897;51.126;5.868;2023-05-27T15:12:44;25.47;44.58
66962;HTU21D;53897;51.126;5.868;2023-05-27T15:15:14;25.48;44.61
66962;HTU21D;53897;51.126;5.868;2023-05-27T15:17:42;25.47;44.57
66962;HTU21D;53897;51.126;5.868;2023-05-27T15:20:11;25.48;44.76
66962;HTU21D;53897;51.126;5.868;2023-05-27T15:22:39;25.48;44.97
66962;HTU21D;53897;51.126;5.868;2023-05-27T15:25:05;25.48;45.03
66962;HTU21D;53897;51.126;5.868;2023-05-27T15:27:31;25.48;45.04